sensor_id;sensor_type;location;lat;lon;timestamp;P1;durP1;ratioP1;P2;durP2;ratioP2
840;SDS011;406;48.566;13.450;2023-08-08T00:00:27;2.77;;;2.00;;
840;SDS011;406;48.566;13.450;2023-08-08T00:02:54;9.20;;;2.60;;
840;SDS011;406;48.566;13.450;2023-08-08T00:05:20;6.03;;;2.40;;
840;SDS011;406;48.566;13.450;2023-08-08T00:07:47;4.30;;;2.40;;
840;SDS011;406;48.566;13.450;2023-08-08T00:10:14;5.67;;;2.37;;
840;SDS011;406;48.566;13.450;2023-08-08T00:12:40;3.33;;;2.10;;
840;SDS011;406;48.566;13.450;2023-08-08T00:15:07;2.90;;;2.20;;
840;SDS011;406;48.566;13.450;2023-08-08T00:17:33;3.53;;;2.17;;
840;SDS011;406;48.566;13.450;2023-08-08T00:20:00;3.90;;;2.40;;
840;SDS011;406;48.566;13.450;2023-08-08T00:22:27;7.93;;;2.37;;
840;SDS011;406;48.566;13.450;2023-08-08T00:24:53;5.00;;;2.13;;
840;SDS011;406;48.566;13.450;2023-08-08T00:27:20;11.17;;;3.17;;
840;SDS011;406;48.566;13.450;2023-08-08T00:29:46;19.43;;;3.23;;
840;SDS011;406;48.566;13.450;2023-08-08T00:32:13;18.17;;;2.80;;
840;SDS011;406;48.566;13.450;2023-08-08T00:34:41;4.53;;;2.60;;
840;SDS011;406;48.566;13.450;2023-08-08T00:37:07;4.60;;;2.70;;
840;SDS011;406;48.566;13.450;2023-08-08T00:39:34;4.73;;;2.47;;
840;SDS011;406;48.566;13.450;2023-08-08T00:42:00;3.80;;;2.30;;
840;SDS011;406;48.566;13.450;2023-08-08T00:44:27;3.67;;;2.57;;
840;SDS011;406;48.566;13.450;2023-08-08T00:46:53;3.63;;;2.37;;
840;SDS011;406;48.566;13.450;2023-08-08T00:49:20;3.87;;;2.77;;
840;SDS011;406;48.566;13.450;2023-08-08T00:51:47;4.77;;;2.57;;
840;SDS011;406;48.566;13.450;2023-08-08T00:54:15;6.43;;;2.23;;
840;SDS011;406;48.566;13.450;2023-08-08T00:56:41;2.87;;;2.33;;
840;SDS011;406;48.566;13.450;2023-08-08T00:59:08;4.33;;;2.50;;
840;SDS011;406;48.566;13.450;2023-08-08T01:01:35;3.90;;;2.17;;
840;SDS011;406;48.566;13.450;2023-08-08T01:04:02;2.57;;;2.30;;
840;SDS011;406;48.566;13.450;2023-08-08T01:09:09;3.63;;;2.47;;
840;SDS011;406;48.566;13.450;2023-08-08T01:11:42;3.80;;;2.00;;
840;SDS011;406;48.566;13.450;2023-08-08T01:14:10;5.60;;;2.80;;
840;SDS011;406;48.566;13.450;2023-08-08T01:16:38;2.80;;;2.37;;
840;SDS011;406;48.566;13.450;2023-08-08T01:19:05;5.03;;;2.50;;
840;SDS011;406;48.566;13.450;2023-08-08T01:21:33;4.10;;;1.90;;
840;SDS011;406;48.566;13.450;2023-08-08T01:24:15;2.43;;;2.17;;
840;SDS011;406;48.566;13.450;2023-08-08T01:26:44;2.97;;;2.50;;
840;SDS011;406;48.566;13.450;2023-08-08T01:29:11;3.40;;;2.17;;
840;SDS011;406;48.566;13.450;2023-08-08T01:31:37;3.50;;;2.27;;
840;SDS011;406;48.566;13.450;2023-08-08T01:34:04;3.30;;;2.77;;
840;SDS011;406;48.566;13.450;2023-08-08T01:36:40;2.93;;;1.90;;
840;SDS011;406;48.566;13.450;2023-08-08T01:39:10;5.20;;;2.77;;
840;SDS011;406;48.566;13.450;2023-08-08T01:41:40;5.00;;;2.40;;
840;SDS011;406;48.566;13.450;2023-08-08T01:44:08;4.83;;;2.60;;
840;SDS011;406;48.566;13.450;2023-08-08T01:46:35;2.67;;;1.97;;
840;SDS011;406;48.566;13.450;2023-08-08T01:49:02;3.77;;;2.87;;
840;SDS011;406;48.566;13.450;2023-08-08T01:51:29;3.70;;;2.80;;
840;SDS011;406;48.566;13.450;2023-08-08T01:53:55;3.90;;;2.60;;
840;SDS011;406;48.566;13.450;2023-08-08T01:56:22;6.00;;;2.83;;
840;SDS011;406;48.566;13.450;2023-08-08T01:58:48;5.17;;;2.60;;
840;SDS011;406;48.566;13.450;2023-08-08T02:01:15;3.40;;;2.30;;
840;SDS011;406;48.566;13.450;2023-08-08T02:03:42;15.90;;;3.40;;
840;SDS011;406;48.566;13.450;2023-08-08T02:06:09;6.47;;;2.30;;
840;SDS011;406;48.566;13.450;2023-08-08T02:08:36;9.90;;;3.90;;
840;SDS011;406;48.566;13.450;2023-08-08T02:11:03;55.07;;;6.77;;
840;SDS011;406;48.566;13.450;2023-08-08T02:13:30;18.97;;;3.67;;
840;SDS011;406;48.566;13.450;2023-08-08T02:15:56;23.80;;;3.90;;
840;SDS011;406;48.566;13.450;2023-08-08T02:18:23;17.00;;;3.50;;
840;SDS011;406;48.566;13.450;2023-08-08T02:20:50;11.03;;;3.00;;
840;SDS011;406;48.566;13.450;2023-08-08T02:23:16;6.23;;;3.00;;
840;SDS011;406;48.566;13.450;2023-08-08T02:25:43;3.93;;;2.53;;
840;SDS011;406;48.566;13.450;2023-08-08T02:28:09;20.27;;;2.97;;
840;SDS011;406;48.566;13.450;2023-08-08T02:30:36;5.20;;;2.80;;
840;SDS011;406;48.566;13.450;2023-08-08T02:33:03;9.97;;;2.37;;
840;SDS011;406;48.566;13.450;2023-08-08T02:35:30;7.63;;;2.60;;
840;SDS011;406;48.566;13.450;2023-08-08T02:37:57;37.13;;;6.00;;
840;SDS011;406;48.566;13.450;2023-08-08T02:40:23;60.13;;;7.97;;
840;SDS011;406;48.566;13.450;2023-08-08T02:42:50;36.00;;;5.07;;
840;SDS011;406;48.566;13.450;2023-08-08T02:45:16;19.00;;;4.83;;
840;SDS011;406;48.566;13.450;2023-08-08T02:47:43;10.43;;;3.27;;
840;SDS011;406;48.566;13.450;2023-08-08T02:50:10;3.97;;;2.33;;
840;SDS011;406;48.566;13.450;2023-08-08T02:52:36;3.70;;;2.57;;
840;SDS011;406;48.566;13.450;2023-08-08T02:55:03;3.30;;;2.43;;
840;SDS011;406;48.566;13.450;2023-08-08T02:57:30;3.60;;;2.27;;
840;SDS011;406;48.566;13.450;2023-08-08T02:59:57;6.73;;;3.00;;
840;SDS011;406;48.566;13.450;2023-08-08T03:02:24;2.90;;;1.87;;
840;SDS011;406;48.566;13.450;2023-08-08T03:04:52;3.70;;;2.53;;
840;SDS011;406;48.566;13.450;2023-08-08T03:07:21;2.80;;;2.40;;
840;SDS011;406;48.566;13.450;2023-08-08T03:09:47;2.70;;;2.27;;
840;SDS011;406;48.566;13.450;2023-08-08T03:12:14;6.40;;;3.13;;
840;SDS011;406;48.566;13.450;2023-08-08T03:14:40;8.80;;;4.13;;
840;SDS011;406;48.566;13.450;2023-08-08T03:17:07;3.10;;;2.30;;
840;SDS011;406;48.566;13.450;2023-08-08T03:19:34;4.60;;;2.53;;
840;SDS011;406;48.566;13.450;2023-08-08T03:22:01;7.23;;;2.60;;
840;SDS011;406;48.566;13.450;2023-08-08T03:24:29;3.10;;;2.33;;
840;SDS011;406;48.566;13.450;2023-08-08T03:26:55;4.60;;;2.50;;
840;SDS011;406;48.566;13.450;2023-08-08T03:29:22;5.10;;;2.77;;
840;SDS011;406;48.566;13.450;2023-08-08T03:31:48;4.10;;;2.70;;
840;SDS011;406;48.566;13.450;2023-08-08T03:34:16;3.70;;;3.27;;
840;SDS011;406;48.566;13.450;2023-08-08T03:36:43;5.03;;;3.10;;
840;SDS011;406;48.566;13.450;2023-08-08T03:39:10;3.80;;;2.80;;
840;SDS011;406;48.566;13.450;2023-08-08T03:41:36;4.50;;;2.83;;
840;SDS011;406;48.566;13.450;2023-08-08T03:44:04;3.40;;;2.20;;
840;SDS011;406;48.566;13.450;2023-08-08T03:46:30;7.87;;;2.73;;
840;SDS011;406;48.566;13.450;2023-08-08T03:48:57;4.13;;;2.80;;
840;SDS011;406;48.566;13.450;2023-08-08T03:51:24;3.03;;;1.97;;
840;SDS011;406;48.566;13.450;2023-08-08T03:53:50;2.50;;;2.10;;
840;SDS011;406;48.566;13.450;2023-08-08T03:56:17;3.40;;;2.77;;
840;SDS011;406;48.566;13.450;2023-08-08T03:58:43;3.40;;;2.40;;
840;SDS011;406;48.566;13.450;2023-08-08T04:01:10;4.93;;;2.77;;
840;SDS011;406;48.566;13.450;2023-08-08T04:03:36;3.23;;;2.10;;
840;SDS011;406;48.566;13.450;2023-08-08T04:06:03;2.53;;;2.33;;
840;SDS011;406;48.566;13.450;2023-08-08T04:08:31;3.53;;;2.27;;
840;SDS011;406;48.566;13.450;2023-08-08T04:10:58;2.97;;;2.17;;
840;SDS011;406;48.566;13.450;2023-08-08T04:13:24;2.67;;;1.90;;
840;SDS011;406;48.566;13.450;2023-08-08T04:15:51;2.80;;;2.13;;
840;SDS011;406;48.566;13.450;2023-08-08T04:18:18;2.00;;;1.80;;
840;SDS011;406;48.566;13.450;2023-08-08T04:20:47;2.17;;;1.50;;
840;SDS011;406;48.566;13.450;2023-08-08T04:23:14;2.67;;;1.90;;
840;SDS011;406;48.566;13.450;2023-08-08T04:25:40;2.13;;;1.93;;
840;SDS011;406;48.566;13.450;2023-08-08T04:28:07;3.70;;;2.40;;
840;SDS011;406;48.566;13.450;2023-08-08T04:30:33;2.23;;;1.77;;
840;SDS011;406;48.566;13.450;2023-08-08T04:33:01;5.00;;;2.10;;
840;SDS011;406;48.566;13.450;2023-08-08T04:35:28;3.57;;;3.07;;
840;SDS011;406;48.566;13.450;2023-08-08T04:37:54;3.20;;;2.27;;
840;SDS011;406;48.566;13.450;2023-08-08T04:40:21;2.27;;;1.90;;
840;SDS011;406;48.566;13.450;2023-08-08T04:42:47;7.33;;;3.10;;
840;SDS011;406;48.566;13.450;2023-08-08T04:45:14;5.27;;;3.10;;
840;SDS011;406;48.566;13.450;2023-08-08T04:47:41;4.60;;;2.83;;
840;SDS011;406;48.566;13.450;2023-08-08T04:50:07;3.23;;;2.90;;
840;SDS011;406;48.566;13.450;2023-08-08T04:52:34;3.90;;;3.00;;
840;SDS011;406;48.566;13.450;2023-08-08T04:55:00;3.07;;;2.57;;
840;SDS011;406;48.566;13.450;2023-08-08T04:57:27;3.07;;;2.33;;
840;SDS011;406;48.566;13.450;2023-08-08T04:59:53;4.83;;;2.90;;
840;SDS011;406;48.566;13.450;2023-08-08T05:02:20;3.40;;;3.10;;
840;SDS011;406;48.566;13.450;2023-08-08T05:04:46;3.60;;;2.67;;
840;SDS011;406;48.566;13.450;2023-08-08T05:07:13;3.90;;;2.90;;
840;SDS011;406;48.566;13.450;2023-08-08T05:09:39;3.40;;;3.10;;
840;SDS011;406;48.566;13.450;2023-08-08T05:12:06;8.13;;;3.50;;
840;SDS011;406;48.566;13.450;2023-08-08T05:14:33;4.70;;;3.30;;
840;SDS011;406;48.566;13.450;2023-08-08T05:17:01;5.40;;;3.10;;
840;SDS011;406;48.566;13.450;2023-08-08T05:19:28;5.13;;;2.97;;
840;SDS011;406;48.566;13.450;2023-08-08T05:21:55;4.50;;;3.63;;
840;SDS011;406;48.566;13.450;2023-08-08T05:24:21;4.23;;;2.87;;
840;SDS011;406;48.566;13.450;2023-08-08T05:26:48;3.70;;;2.43;;
840;SDS011;406;48.566;13.450;2023-08-08T05:29:15;4.93;;;2.83;;
840;SDS011;406;48.566;13.450;2023-08-08T05:31:41;4.60;;;2.87;;
840;SDS011;406;48.566;13.450;2023-08-08T05:34:08;2.90;;;2.43;;
840;SDS011;406;48.566;13.450;2023-08-08T05:36:34;8.23;;;3.30;;
840;SDS011;406;48.566;13.450;2023-08-08T05:39:01;3.33;;;2.23;;
840;SDS011;406;48.566;13.450;2023-08-08T05:41:27;3.07;;;2.17;;
840;SDS011;406;48.566;13.450;2023-08-08T05:43:54;3.90;;;2.47;;
840;SDS011;406;48.566;13.450;2023-08-08T05:46:21;5.23;;;2.93;;
840;SDS011;406;48.566;13.450;2023-08-08T05:48:47;3.83;;;2.03;;
840;SDS011;406;48.566;13.450;2023-08-08T05:51:14;3.30;;;2.40;;
840;SDS011;406;48.566;13.450;2023-08-08T05:53:40;3.00;;;2.30;;
840;SDS011;406;48.566;13.450;2023-08-08T05:56:07;2.37;;;1.80;;
840;SDS011;406;48.566;13.450;2023-08-08T05:58:35;3.70;;;2.20;;
840;SDS011;406;48.566;13.450;2023-08-08T06:01:03;3.00;;;2.03;;
840;SDS011;406;48.566;13.450;2023-08-08T06:03:35;2.07;;;1.60;;
840;SDS011;406;48.566;13.450;2023-08-08T06:06:04;2.30;;;2.10;;
840;SDS011;406;48.566;13.450;2023-08-08T06:08:30;3.60;;;2.23;;
840;SDS011;406;48.566;13.450;2023-08-08T06:10:58;3.73;;;2.33;;
840;SDS011;406;48.566;13.450;2023-08-08T06:13:24;2.97;;;1.90;;
840;SDS011;406;48.566;13.450;2023-08-08T06:15:51;4.10;;;1.90;;
840;SDS011;406;48.566;13.450;2023-08-08T06:18:17;3.57;;;2.33;;
840;SDS011;406;48.566;13.450;2023-08-08T06:20:44;4.20;;;2.20;;
840;SDS011;406;48.566;13.450;2023-08-08T06:23:10;3.77;;;2.13;;
840;SDS011;406;48.566;13.450;2023-08-08T06:25:37;4.33;;;2.50;;
840;SDS011;406;48.566;13.450;2023-08-08T06:28:05;6.00;;;2.43;;
840;SDS011;406;48.566;13.450;2023-08-08T06:30:32;2.50;;;1.93;;
840;SDS011;406;48.566;13.450;2023-08-08T06:32:59;2.30;;;1.93;;
840;SDS011;406;48.566;13.450;2023-08-08T06:35:26;3.60;;;2.30;;
840;SDS011;406;48.566;13.450;2023-08-08T06:37:52;2.40;;;1.90;;
840;SDS011;406;48.566;13.450;2023-08-08T06:40:19;2.60;;;1.93;;
840;SDS011;406;48.566;13.450;2023-08-08T06:42:45;3.70;;;2.30;;
840;SDS011;406;48.566;13.450;2023-08-08T06:45:12;2.70;;;2.37;;
840;SDS011;406;48.566;13.450;2023-08-08T06:47:38;2.97;;;2.67;;
840;SDS011;406;48.566;13.450;2023-08-08T06:50:05;5.70;;;2.40;;
840;SDS011;406;48.566;13.450;2023-08-08T06:52:32;2.97;;;2.67;;
840;SDS011;406;48.566;13.450;2023-08-08T06:54:58;2.77;;;2.33;;
840;SDS011;406;48.566;13.450;2023-08-08T06:57:25;4.27;;;2.87;;
840;SDS011;406;48.566;13.450;2023-08-08T06:59:51;3.50;;;3.20;;
840;SDS011;406;48.566;13.450;2023-08-08T07:02:19;3.30;;;3.00;;
840;SDS011;406;48.566;13.450;2023-08-08T07:04:46;3.37;;;3.07;;
840;SDS011;406;48.566;13.450;2023-08-08T07:07:13;3.80;;;3.30;;
840;SDS011;406;48.566;13.450;2023-08-08T07:09:40;2.90;;;2.53;;
840;SDS011;406;48.566;13.450;2023-08-08T07:12:08;4.13;;;2.80;;
840;SDS011;406;48.566;13.450;2023-08-08T07:14:34;6.00;;;2.93;;
840;SDS011;406;48.566;13.450;2023-08-08T07:17:01;3.80;;;2.87;;
840;SDS011;406;48.566;13.450;2023-08-08T07:19:29;4.23;;;3.13;;
840;SDS011;406;48.566;13.450;2023-08-08T07:21:56;2.33;;;2.13;;
840;SDS011;406;48.566;13.450;2023-08-08T07:24:23;2.87;;;2.67;;
840;SDS011;406;48.566;13.450;2023-08-08T07:26:58;3.20;;;2.40;;
840;SDS011;406;48.566;13.450;2023-08-08T07:29:25;2.67;;;2.10;;
840;SDS011;406;48.566;13.450;2023-08-08T07:31:52;5.80;;;2.93;;
840;SDS011;406;48.566;13.450;2023-08-08T07:34:19;2.50;;;2.17;;
840;SDS011;406;48.566;13.450;2023-08-08T07:36:46;3.97;;;3.07;;
840;SDS011;406;48.566;13.450;2023-08-08T07:39:13;3.03;;;2.30;;
840;SDS011;406;48.566;13.450;2023-08-08T07:41:40;2.73;;;2.00;;
840;SDS011;406;48.566;13.450;2023-08-08T07:44:06;4.27;;;2.00;;
840;SDS011;406;48.566;13.450;2023-08-08T07:46:33;2.47;;;1.83;;
840;SDS011;406;48.566;13.450;2023-08-08T07:49:00;2.03;;;1.80;;
840;SDS011;406;48.566;13.450;2023-08-08T07:51:29;2.30;;;1.90;;
840;SDS011;406;48.566;13.450;2023-08-08T07:53:56;1.90;;;1.50;;
840;SDS011;406;48.566;13.450;2023-08-08T07:56:23;3.27;;;1.73;;
840;SDS011;406;48.566;13.450;2023-08-08T07:58:50;3.13;;;1.70;;
840;SDS011;406;48.566;13.450;2023-08-08T08:01:16;5.20;;;1.80;;
840;SDS011;406;48.566;13.450;2023-08-08T08:03:43;2.40;;;1.73;;
840;SDS011;406;48.566;13.450;2023-08-08T08:06:09;2.33;;;2.00;;
840;SDS011;406;48.566;13.450;2023-08-08T08:08:36;2.27;;;1.47;;
840;SDS011;406;48.566;13.450;2023-08-08T08:11:03;2.60;;;1.73;;
840;SDS011;406;48.566;13.450;2023-08-08T08:13:29;1.80;;;1.30;;
840;SDS011;406;48.566;13.450;2023-08-08T08:15:56;3.40;;;1.90;;
840;SDS011;406;48.566;13.450;2023-08-08T08:18:22;6.10;;;2.07;;
840;SDS011;406;48.566;13.450;2023-08-08T08:20:49;1.93;;;1.40;;
840;SDS011;406;48.566;13.450;2023-08-08T08:23:16;3.07;;;1.80;;
840;SDS011;406;48.566;13.450;2023-08-08T08:25:42;3.60;;;2.23;;
840;SDS011;406;48.566;13.450;2023-08-08T08:28:09;2.50;;;1.57;;
840;SDS011;406;48.566;13.450;2023-08-08T08:30:35;3.10;;;1.63;;
840;SDS011;406;48.566;13.450;2023-08-08T08:33:03;2.37;;;1.57;;
840;SDS011;406;48.566;13.450;2023-08-08T08:35:30;2.73;;;1.77;;
840;SDS011;406;48.566;13.450;2023-08-08T08:37:57;2.20;;;1.90;;
840;SDS011;406;48.566;13.450;2023-08-08T08:40:23;2.10;;;1.53;;
840;SDS011;406;48.566;13.450;2023-08-08T08:42:50;2.37;;;1.87;;
840;SDS011;406;48.566;13.450;2023-08-08T08:45:16;2.23;;;1.67;;
840;SDS011;406;48.566;13.450;2023-08-08T08:47:47;2.97;;;1.63;;
840;SDS011;406;48.566;13.450;2023-08-08T08:50:15;3.10;;;2.00;;
840;SDS011;406;48.566;13.450;2023-08-08T08:52:42;2.17;;;1.90;;
840;SDS011;406;48.566;13.450;2023-08-08T08:55:09;1.70;;;1.30;;
840;SDS011;406;48.566;13.450;2023-08-08T08:57:36;3.57;;;1.30;;
840;SDS011;406;48.566;13.450;2023-08-08T09:00:03;1.87;;;1.43;;
840;SDS011;406;48.566;13.450;2023-08-08T09:02:32;4.50;;;2.17;;
840;SDS011;406;48.566;13.450;2023-08-08T09:04:59;2.03;;;1.77;;
840;SDS011;406;48.566;13.450;2023-08-08T09:07:28;2.23;;;2.03;;
840;SDS011;406;48.566;13.450;2023-08-08T09:09:56;3.20;;;1.63;;
840;SDS011;406;48.566;13.450;2023-08-08T09:12:22;2.50;;;1.67;;
840;SDS011;406;48.566;13.450;2023-08-08T09:14:56;3.77;;;1.87;;
840;SDS011;406;48.566;13.450;2023-08-08T09:17:26;3.87;;;2.30;;
840;SDS011;406;48.566;13.450;2023-08-08T09:20:12;2.20;;;1.73;;
840;SDS011;406;48.566;13.450;2023-08-08T09:22:39;1.93;;;1.60;;
840;SDS011;406;48.566;13.450;2023-08-08T09:25:06;1.87;;;1.67;;
840;SDS011;406;48.566;13.450;2023-08-08T09:27:34;2.03;;;1.83;;
840;SDS011;406;48.566;13.450;2023-08-08T09:30:01;3.57;;;1.37;;
840;SDS011;406;48.566;13.450;2023-08-08T09:32:31;2.33;;;1.70;;
840;SDS011;406;48.566;13.450;2023-08-08T09:34:58;2.13;;;1.50;;
840;SDS011;406;48.566;13.450;2023-08-08T09:37:25;2.07;;;1.27;;
840;SDS011;406;48.566;13.450;2023-08-08T09:39:58;2.70;;;1.63;;
840;SDS011;406;48.566;13.450;2023-08-08T09:42:26;2.07;;;1.53;;
840;SDS011;406;48.566;13.450;2023-08-08T09:44:53;4.80;;;4.33;;
840;SDS011;406;48.566;13.450;2023-08-08T09:47:20;1.83;;;1.30;;
840;SDS011;406;48.566;13.450;2023-08-08T09:49:48;2.77;;;1.67;;
840;SDS011;406;48.566;13.450;2023-08-08T09:52:15;1.50;;;1.20;;
840;SDS011;406;48.566;13.450;2023-08-08T09:54:42;19.03;;;2.50;;
840;SDS011;406;48.566;13.450;2023-08-08T09:57:09;2.13;;;1.93;;
840;SDS011;406;48.566;13.450;2023-08-08T09:59:36;2.10;;;1.37;;
840;SDS011;406;48.566;13.450;2023-08-08T10:02:04;3.87;;;1.93;;
840;SDS011;406;48.566;13.450;2023-08-08T10:04:31;3.63;;;1.50;;
840;SDS011;406;48.566;13.450;2023-08-08T10:06:59;3.30;;;1.40;;
840;SDS011;406;48.566;13.450;2023-08-08T10:09:25;2.40;;;1.80;;
840;SDS011;406;48.566;13.450;2023-08-08T10:11:52;4.23;;;1.90;;
840;SDS011;406;48.566;13.450;2023-08-08T10:14:21;1.67;;;1.43;;
840;SDS011;406;48.566;13.450;2023-08-08T10:16:55;1.67;;;1.40;;
840;SDS011;406;48.566;13.450;2023-08-08T10:19:22;2.47;;;1.60;;
840;SDS011;406;48.566;13.450;2023-08-08T10:21:54;2.67;;;1.70;;
840;SDS011;406;48.566;13.450;2023-08-08T10:24:23;3.30;;;1.37;;
840;SDS011;406;48.566;13.450;2023-08-08T10:26:53;1.93;;;1.70;;
840;SDS011;406;48.566;13.450;2023-08-08T10:29:26;2.47;;;1.23;;
840;SDS011;406;48.566;13.450;2023-08-08T10:31:57;1.70;;;1.20;;
840;SDS011;406;48.566;13.450;2023-08-08T10:34:39;2.90;;;1.50;;
840;SDS011;406;48.566;13.450;2023-08-08T10:37:10;2.07;;;1.57;;
840;SDS011;406;48.566;13.450;2023-08-08T10:39:49;1.33;;;1.23;;
840;SDS011;406;48.566;13.450;2023-08-08T10:42:18;1.57;;;1.03;;
840;SDS011;406;48.566;13.450;2023-08-08T10:44:52;1.70;;;1.27;;
840;SDS011;406;48.566;13.450;2023-08-08T10:47:24;1.80;;;1.40;;
840;SDS011;406;48.566;13.450;2023-08-08T10:50:07;3.10;;;1.40;;
840;SDS011;406;48.566;13.450;2023-08-08T10:52:49;2.17;;;1.50;;
840;SDS011;406;48.566;13.450;2023-08-08T10:55:21;1.93;;;1.30;;
840;SDS011;406;48.566;13.450;2023-08-08T10:57:53;2.60;;;1.90;;
840;SDS011;406;48.566;13.450;2023-08-08T11:00:31;2.80;;;1.73;;
840;SDS011;406;48.566;13.450;2023-08-08T11:02:59;2.30;;;1.60;;
840;SDS011;406;48.566;13.450;2023-08-08T11:05:30;2.00;;;1.23;;
840;SDS011;406;48.566;13.450;2023-08-08T11:07:58;2.70;;;1.77;;
840;SDS011;406;48.566;13.450;2023-08-08T11:10:25;2.00;;;1.73;;
840;SDS011;406;48.566;13.450;2023-08-08T11:13:01;4.10;;;1.50;;
840;SDS011;406;48.566;13.450;2023-08-08T11:15:32;4.73;;;1.70;;
840;SDS011;406;48.566;13.450;2023-08-08T11:17:59;1.87;;;1.50;;
840;SDS011;406;48.566;13.450;2023-08-08T11:20:29;2.90;;;1.50;;
840;SDS011;406;48.566;13.450;2023-08-08T11:22:57;2.30;;;1.60;;
840;SDS011;406;48.566;13.450;2023-08-08T11:25:27;2.43;;;1.57;;
840;SDS011;406;48.566;13.450;2023-08-08T11:27:55;2.20;;;1.20;;
840;SDS011;406;48.566;13.450;2023-08-08T11:30:23;5.40;;;1.70;;
840;SDS011;406;48.566;13.450;2023-08-08T11:32:50;3.90;;;1.57;;
840;SDS011;406;48.566;13.450;2023-08-08T11:35:23;4.50;;;1.47;;
840;SDS011;406;48.566;13.450;2023-08-08T11:37:54;2.53;;;1.50;;
840;SDS011;406;48.566;13.450;2023-08-08T11:40:23;1.70;;;1.30;;
840;SDS011;406;48.566;13.450;2023-08-08T11:42:51;2.53;;;1.63;;
840;SDS011;406;48.566;13.450;2023-08-08T11:45:18;1.90;;;1.50;;
840;SDS011;406;48.566;13.450;2023-08-08T11:47:48;2.23;;;1.50;;
840;SDS011;406;48.566;13.450;2023-08-08T11:50:20;1.73;;;1.30;;
840;SDS011;406;48.566;13.450;2023-08-08T11:52:51;1.50;;;1.00;;
840;SDS011;406;48.566;13.450;2023-08-08T11:55:26;2.10;;;1.40;;
840;SDS011;406;48.566;13.450;2023-08-08T11:57:54;2.63;;;1.53;;
840;SDS011;406;48.566;13.450;2023-08-08T12:00:25;3.70;;;1.37;;
840;SDS011;406;48.566;13.450;2023-08-08T12:02:53;1.60;;;1.13;;
840;SDS011;406;48.566;13.450;2023-08-08T12:05:20;2.03;;;1.07;;
840;SDS011;406;48.566;13.450;2023-08-08T12:07:48;1.30;;;1.07;;
840;SDS011;406;48.566;13.450;2023-08-08T12:10:22;3.03;;;1.07;;
840;SDS011;406;48.566;13.450;2023-08-08T12:12:53;1.47;;;1.20;;
840;SDS011;406;48.566;13.450;2023-08-08T12:15:21;2.23;;;1.20;;
840;SDS011;406;48.566;13.450;2023-08-08T12:17:48;2.50;;;1.10;;
840;SDS011;406;48.566;13.450;2023-08-08T12:20:15;1.50;;;1.20;;
840;SDS011;406;48.566;13.450;2023-08-08T12:22:42;3.03;;;1.60;;
840;SDS011;406;48.566;13.450;2023-08-08T12:25:08;1.83;;;1.30;;
840;SDS011;406;48.566;13.450;2023-08-08T12:27:35;2.20;;;1.37;;
840;SDS011;406;48.566;13.450;2023-08-08T12:30:02;1.53;;;1.07;;
840;SDS011;406;48.566;13.450;2023-08-08T12:32:28;1.93;;;1.10;;
840;SDS011;406;48.566;13.450;2023-08-08T12:34:57;2.83;;;1.27;;
840;SDS011;406;48.566;13.450;2023-08-08T12:37:24;2.13;;;1.53;;
840;SDS011;406;48.566;13.450;2023-08-08T12:39:51;2.80;;;1.60;;
840;SDS011;406;48.566;13.450;2023-08-08T12:42:17;2.90;;;1.20;;
840;SDS011;406;48.566;13.450;2023-08-08T12:44:44;1.70;;;1.20;;
840;SDS011;406;48.566;13.450;2023-08-08T12:47:11;1.73;;;1.00;;
840;SDS011;406;48.566;13.450;2023-08-08T12:49:40;2.00;;;1.30;;
840;SDS011;406;48.566;13.450;2023-08-08T12:52:07;2.27;;;1.40;;
840;SDS011;406;48.566;13.450;2023-08-08T12:54:33;2.00;;;1.23;;
840;SDS011;406;48.566;13.450;2023-08-08T12:57:00;1.47;;;0.97;;
840;SDS011;406;48.566;13.450;2023-08-08T12:59:27;1.77;;;0.87;;
840;SDS011;406;48.566;13.450;2023-08-08T13:01:54;1.27;;;0.80;;
840;SDS011;406;48.566;13.450;2023-08-08T13:04:20;1.50;;;0.87;;
840;SDS011;406;48.566;13.450;2023-08-08T13:06:47;2.57;;;0.80;;
840;SDS011;406;48.566;13.450;2023-08-08T13:09:14;2.83;;;1.20;;
840;SDS011;406;48.566;13.450;2023-08-08T13:11:42;1.53;;;1.40;;
840;SDS011;406;48.566;13.450;2023-08-08T13:14:08;3.00;;;1.30;;
840;SDS011;406;48.566;13.450;2023-08-08T13:16:35;1.27;;;0.87;;
840;SDS011;406;48.566;13.450;2023-08-08T13:19:02;1.70;;;1.07;;
840;SDS011;406;48.566;13.450;2023-08-08T13:21:29;3.00;;;1.70;;
840;SDS011;406;48.566;13.450;2023-08-08T13:23:56;2.03;;;1.07;;
840;SDS011;406;48.566;13.450;2023-08-08T13:26:23;1.47;;;0.97;;
840;SDS011;406;48.566;13.450;2023-08-08T13:28:50;1.33;;;0.93;;
840;SDS011;406;48.566;13.450;2023-08-08T13:31:16;2.23;;;1.00;;
840;SDS011;406;48.566;13.450;2023-08-08T13:33:43;1.23;;;0.90;;
840;SDS011;406;48.566;13.450;2023-08-08T13:36:10;2.10;;;1.00;;
840;SDS011;406;48.566;13.450;2023-08-08T13:38:36;1.63;;;1.20;;
840;SDS011;406;48.566;13.450;2023-08-08T13:41:03;1.70;;;1.13;;
840;SDS011;406;48.566;13.450;2023-08-08T13:43:29;4.57;;;1.70;;
840;SDS011;406;48.566;13.450;2023-08-08T13:45:56;1.03;;;0.80;;
840;SDS011;406;48.566;13.450;2023-08-08T13:48:23;2.67;;;1.10;;
840;SDS011;406;48.566;13.450;2023-08-08T13:50:50;1.63;;;1.20;;
840;SDS011;406;48.566;13.450;2023-08-08T13:53:17;2.37;;;1.40;;
840;SDS011;406;48.566;13.450;2023-08-08T13:55:44;2.10;;;1.27;;
840;SDS011;406;48.566;13.450;2023-08-08T13:58:11;2.17;;;1.50;;
840;SDS011;406;48.566;13.450;2023-08-08T14:00:37;1.77;;;0.90;;
840;SDS011;406;48.566;13.450;2023-08-08T14:03:04;2.93;;;1.30;;
840;SDS011;406;48.566;13.450;2023-08-08T14:05:31;1.40;;;1.00;;
840;SDS011;406;48.566;13.450;2023-08-08T14:07:57;1.60;;;0.80;;
840;SDS011;406;48.566;13.450;2023-08-08T14:10:24;2.00;;;1.20;;
840;SDS011;406;48.566;13.450;2023-08-08T14:12:50;2.37;;;1.80;;
840;SDS011;406;48.566;13.450;2023-08-08T14:15:17;2.60;;;1.40;;
840;SDS011;406;48.566;13.450;2023-08-08T14:17:44;4.07;;;1.53;;
840;SDS011;406;48.566;13.450;2023-08-08T14:20:11;2.90;;;1.30;;
840;SDS011;406;48.566;13.450;2023-08-08T14:22:38;1.30;;;1.03;;
840;SDS011;406;48.566;13.450;2023-08-08T14:25:05;1.73;;;1.20;;
840;SDS011;406;48.566;13.450;2023-08-08T14:27:34;3.87;;;1.23;;
840;SDS011;406;48.566;13.450;2023-08-08T14:30:02;1.97;;;1.20;;
840;SDS011;406;48.566;13.450;2023-08-08T14:32:30;1.70;;;1.30;;
840;SDS011;406;48.566;13.450;2023-08-08T14:34:57;1.70;;;1.23;;
840;SDS011;406;48.566;13.450;2023-08-08T14:37:25;1.60;;;1.50;;
840;SDS011;406;48.566;13.450;2023-08-08T14:39:51;1.20;;;1.00;;
840;SDS011;406;48.566;13.450;2023-08-08T14:42:18;1.27;;;1.10;;
840;SDS011;406;48.566;13.450;2023-08-08T14:44:45;6.30;;;1.30;;
840;SDS011;406;48.566;13.450;2023-08-08T14:47:12;1.63;;;1.23;;
840;SDS011;406;48.566;13.450;2023-08-08T14:49:38;2.30;;;1.40;;
840;SDS011;406;48.566;13.450;2023-08-08T14:52:05;3.50;;;1.47;;
840;SDS011;406;48.566;13.450;2023-08-08T14:54:31;1.90;;;1.23;;
840;SDS011;406;48.566;13.450;2023-08-08T14:56:57;2.00;;;1.23;;
840;SDS011;406;48.566;13.450;2023-08-08T14:59:26;2.03;;;1.30;;
840;SDS011;406;48.566;13.450;2023-08-08T15:01:53;1.90;;;1.53;;
840;SDS011;406;48.566;13.450;2023-08-08T15:04:19;3.17;;;1.37;;
840;SDS011;406;48.566;13.450;2023-08-08T15:06:46;1.63;;;1.30;;
840;SDS011;406;48.566;13.450;2023-08-08T15:09:13;2.50;;;1.40;;
840;SDS011;406;48.566;13.450;2023-08-08T15:11:39;2.20;;;1.70;;
840;SDS011;406;48.566;13.450;2023-08-08T15:14:06;2.93;;;1.70;;
840;SDS011;406;48.566;13.450;2023-08-08T15:16:33;3.57;;;1.53;;
840;SDS011;406;48.566;13.450;2023-08-08T15:18:59;1.50;;;1.30;;
840;SDS011;406;48.566;13.450;2023-08-08T15:21:27;1.80;;;1.23;;
840;SDS011;406;48.566;13.450;2023-08-08T15:23:54;2.03;;;1.50;;
840;SDS011;406;48.566;13.450;2023-08-08T15:26:20;2.83;;;1.27;;
840;SDS011;406;48.566;13.450;2023-08-08T15:28:48;3.67;;;1.57;;
840;SDS011;406;48.566;13.450;2023-08-08T15:31:15;1.57;;;1.33;;
840;SDS011;406;48.566;13.450;2023-08-08T15:33:44;1.60;;;1.50;;